sensor_id;sensor_type;location;lat;lon;timestamp;P1;durP1;ratioP1;P2;durP2;ratioP2
21038;SDS011;10678;51.002;4.786;2022-07-06T00:01:00;14.05;;;13.20;;
21038;SDS011;10678;51.002;4.786;2022-07-06T00:03:25;14.35;;;13.40;;
21038;SDS011;10678;51.002;4.786;2022-07-06T00:05:51;14.50;;;13.63;;
21038;SDS011;10678;51.002;4.786;2022-07-06T00:08:16;14.32;;;13.20;;
21038;SDS011;10678;51.002;4.786;2022-07-06T00:10:42;13.68;;;12.80;;
21038;SDS011;10678;51.002;4.786;2022-07-06T00:13:08;11.48;;;10.73;;
21038;SDS011;10678;51.002;4.786;2022-07-06T00:15:34;11.13;;;10.32;;
21038;SDS011;10678;51.002;4.786;2022-07-06T00:18:00;10.18;;;9.23;;
21038;SDS011;10678;51.002;4.786;2022-07-06T00:20:25;10.63;;;9.90;;
21038;SDS011;10678;51.002;4.786;2022-07-06T00:22:51;9.25;;;8.57;;
21038;SDS011;10678;51.002;4.786;2022-07-06T00:25:17;10.82;;;10.05;;
21038;SDS011;10678;51.002;4.786;2022-07-06T00:27:42;11.98;;;11.15;;
21038;SDS011;10678;51.002;4.786;2022-07-06T00:30:08;13.15;;;12.35;;
21038;SDS011;10678;51.002;4.786;2022-07-06T00:32:34;10.57;;;9.85;;
21038;SDS011;10678;51.002;4.786;2022-07-06T00:34:59;12.52;;;11.60;;
21038;SDS011;10678;51.002;4.786;2022-07-06T00:37:25;8.30;;;7.70;;
21038;SDS011;10678;51.002;4.786;2022-07-06T00:39:50;9.77;;;8.98;;
21038;SDS011;10678;51.002;4.786;2022-07-06T00:42:16;9.77;;;9.05;;
21038;SDS011;10678;51.002;4.786;2022-07-06T00:44:43;11.32;;;10.48;;
21038;SDS011;10678;51.002;4.786;2022-07-06T00:47:08;10.68;;;9.88;;
21038;SDS011;10678;51.002;4.786;2022-07-06T00:49:34;10.65;;;9.85;;
21038;SDS011;10678;51.002;4.786;2022-07-06T00:52:18;13.57;;;12.73;;
21038;SDS011;10678;51.002;4.786;2022-07-06T00:54:44;11.63;;;10.85;;
21038;SDS011;10678;51.002;4.786;2022-07-06T00:57:11;13.57;;;12.75;;
21038;SDS011;10678;51.002;4.786;2022-07-06T00:59:37;12.90;;;11.95;;
21038;SDS011;10678;51.002;4.786;2022-07-06T01:02:03;12.77;;;11.93;;
21038;SDS011;10678;51.002;4.786;2022-07-06T01:04:29;13.50;;;12.68;;
21038;SDS011;10678;51.002;4.786;2022-07-06T01:06:54;18.27;;;16.70;;
21038;SDS011;10678;51.002;4.786;2022-07-06T01:09:21;19.08;;;17.98;;
21038;SDS011;10678;51.002;4.786;2022-07-06T01:11:47;16.73;;;15.75;;
21038;SDS011;10678;51.002;4.786;2022-07-06T01:14:13;16.98;;;15.82;;
21038;SDS011;10678;51.002;4.786;2022-07-06T01:16:40;17.85;;;16.83;;
21038;SDS011;10678;51.002;4.786;2022-07-06T01:19:06;19.92;;;18.23;;
21038;SDS011;10678;51.002;4.786;2022-07-06T01:21:31;25.02;;;23.63;;
21038;SDS011;10678;51.002;4.786;2022-07-06T01:23:57;31.02;;;29.42;;
21038;SDS011;10678;51.002;4.786;2022-07-06T01:26:23;32.13;;;30.48;;
21038;SDS011;10678;51.002;4.786;2022-07-06T01:28:49;32.05;;;30.45;;
21038;SDS011;10678;51.002;4.786;2022-07-06T01:31:19;33.10;;;31.35;;
21038;SDS011;10678;51.002;4.786;2022-07-06T01:33:47;35.13;;;33.00;;
21038;SDS011;10678;51.002;4.786;2022-07-06T01:36:14;36.90;;;35.00;;
21038;SDS011;10678;51.002;4.786;2022-07-06T01:38:44;32.72;;;31.05;;
21038;SDS011;10678;51.002;4.786;2022-07-06T01:41:09;34.47;;;32.63;;
21038;SDS011;10678;51.002;4.786;2022-07-06T01:43:35;33.40;;;31.70;;
21038;SDS011;10678;51.002;4.786;2022-07-06T01:46:01;31.13;;;29.52;;
21038;SDS011;10678;51.002;4.786;2022-07-06T01:48:26;21.83;;;20.45;;
21038;SDS011;10678;51.002;4.786;2022-07-06T01:50:52;14.40;;;13.50;;
21038;SDS011;10678;51.002;4.786;2022-07-06T01:53:17;11.90;;;11.07;;
21038;SDS011;10678;51.002;4.786;2022-07-06T01:55:43;13.02;;;12.18;;
21038;SDS011;10678;51.002;4.786;2022-07-06T01:58:09;13.65;;;12.82;;
21038;SDS011;10678;51.002;4.786;2022-07-06T02:00:35;12.25;;;11.43;;
21038;SDS011;10678;51.002;4.786;2022-07-06T02:03:00;12.43;;;11.63;;
21038;SDS011;10678;51.002;4.786;2022-07-06T02:05:26;14.13;;;12.68;;
21038;SDS011;10678;51.002;4.786;2022-07-06T02:07:51;14.27;;;13.20;;
21038;SDS011;10678;51.002;4.786;2022-07-06T02:10:17;10.10;;;9.40;;
21038;SDS011;10678;51.002;4.786;2022-07-06T02:12:43;11.65;;;10.77;;
21038;SDS011;10678;51.002;4.786;2022-07-06T02:15:08;12.10;;;11.30;;
21038;SDS011;10678;51.002;4.786;2022-07-06T02:17:34;12.20;;;11.25;;
21038;SDS011;10678;51.002;4.786;2022-07-06T02:20:00;20.85;;;19.52;;
21038;SDS011;10678;51.002;4.786;2022-07-06T02:22:25;14.30;;;13.27;;
21038;SDS011;10678;51.002;4.786;2022-07-06T02:24:51;13.00;;;12.15;;
21038;SDS011;10678;51.002;4.786;2022-07-06T02:27:16;14.88;;;13.82;;
21038;SDS011;10678;51.002;4.786;2022-07-06T02:29:42;12.65;;;11.73;;
21038;SDS011;10678;51.002;4.786;2022-07-06T02:32:07;14.07;;;13.23;;
21038;SDS011;10678;51.002;4.786;2022-07-06T02:34:33;14.50;;;13.35;;
21038;SDS011;10678;51.002;4.786;2022-07-06T02:36:59;13.93;;;12.98;;
21038;SDS011;10678;51.002;4.786;2022-07-06T02:39:25;14.23;;;13.23;;
21038;SDS011;10678;51.002;4.786;2022-07-06T02:41:51;13.55;;;12.18;;
21038;SDS011;10678;51.002;4.786;2022-07-06T02:44:16;14.30;;;13.40;;
21038;SDS011;10678;51.002;4.786;2022-07-06T02:46:42;16.05;;;14.82;;
21038;SDS011;10678;51.002;4.786;2022-07-06T02:49:07;14.15;;;13.18;;
21038;SDS011;10678;51.002;4.786;2022-07-06T02:51:33;14.63;;;13.65;;
21038;SDS011;10678;51.002;4.786;2022-07-06T02:53:59;17.02;;;15.82;;
21038;SDS011;10678;51.002;4.786;2022-07-06T02:56:24;17.70;;;16.55;;
21038;SDS011;10678;51.002;4.786;2022-07-06T02:58:50;21.33;;;19.23;;
21038;SDS011;10678;51.002;4.786;2022-07-06T03:01:15;18.58;;;17.52;;
21038;SDS011;10678;51.002;4.786;2022-07-06T03:03:41;17.42;;;15.63;;
21038;SDS011;10678;51.002;4.786;2022-07-06T03:06:07;15.07;;;13.90;;
21038;SDS011;10678;51.002;4.786;2022-07-06T03:08:32;11.15;;;10.35;;
21038;SDS011;10678;51.002;4.786;2022-07-06T03:10:59;12.95;;;10.85;;
21038;SDS011;10678;51.002;4.786;2022-07-06T03:13:25;10.13;;;9.32;;
21038;SDS011;10678;51.002;4.786;2022-07-06T03:15:51;12.45;;;11.57;;
21038;SDS011;10678;51.002;4.786;2022-07-06T03:18:17;12.93;;;11.85;;
21038;SDS011;10678;51.002;4.786;2022-07-06T03:20:42;10.88;;;10.13;;
21038;SDS011;10678;51.002;4.786;2022-07-06T03:23:08;10.73;;;9.93;;
21038;SDS011;10678;51.002;4.786;2022-07-06T03:25:34;19.40;;;18.15;;
21038;SDS011;10678;51.002;4.786;2022-07-06T03:27:59;13.27;;;12.30;;
21038;SDS011;10678;51.002;4.786;2022-07-06T03:30:25;12.88;;;11.98;;
21038;SDS011;10678;51.002;4.786;2022-07-06T03:32:50;10.70;;;9.90;;
21038;SDS011;10678;51.002;4.786;2022-07-06T03:35:16;8.93;;;8.25;;
21038;SDS011;10678;51.002;4.786;2022-07-06T03:37:42;8.30;;;7.65;;
21038;SDS011;10678;51.002;4.786;2022-07-06T03:40:08;10.70;;;7.88;;
21038;SDS011;10678;51.002;4.786;2022-07-06T03:42:35;8.00;;;6.32;;
21038;SDS011;10678;51.002;4.786;2022-07-06T03:45:00;7.05;;;6.45;;
21038;SDS011;10678;51.002;4.786;2022-07-06T03:47:26;8.15;;;7.45;;
21038;SDS011;10678;51.002;4.786;2022-07-06T03:49:52;7.55;;;6.75;;
21038;SDS011;10678;51.002;4.786;2022-07-06T03:52:17;8.88;;;8.10;;
21038;SDS011;10678;51.002;4.786;2022-07-06T03:54:43;7.75;;;6.97;;
21038;SDS011;10678;51.002;4.786;2022-07-06T03:57:08;7.43;;;6.82;;
21038;SDS011;10678;51.002;4.786;2022-07-06T03:59:34;11.90;;;11.07;;
21038;SDS011;10678;51.002;4.786;2022-07-06T04:02:00;24.52;;;23.13;;
21038;SDS011;10678;51.002;4.786;2022-07-06T04:04:25;19.92;;;18.60;;
21038;SDS011;10678;51.002;4.786;2022-07-06T04:06:51;20.48;;;19.17;;
21038;SDS011;10678;51.002;4.786;2022-07-06T04:09:16;18.80;;;17.45;;
21038;SDS011;10678;51.002;4.786;2022-07-06T04:11:42;15.80;;;14.75;;
21038;SDS011;10678;51.002;4.786;2022-07-06T04:14:08;16.20;;;15.07;;
21038;SDS011;10678;51.002;4.786;2022-07-06T04:16:33;14.27;;;13.25;;
21038;SDS011;10678;51.002;4.786;2022-07-06T04:18:59;13.60;;;12.68;;
21038;SDS011;10678;51.002;4.786;2022-07-06T04:21:25;12.82;;;11.57;;
21038;SDS011;10678;51.002;4.786;2022-07-06T04:23:50;10.43;;;9.73;;
21038;SDS011;10678;51.002;4.786;2022-07-06T04:26:16;11.30;;;10.48;;
21038;SDS011;10678;51.002;4.786;2022-07-06T04:28:41;8.70;;;8.05;;
21038;SDS011;10678;51.002;4.786;2022-07-06T04:31:07;8.10;;;7.38;;
21038;SDS011;10678;51.002;4.786;2022-07-06T04:33:33;9.02;;;8.13;;
21038;SDS011;10678;51.002;4.786;2022-07-06T04:35:59;7.15;;;6.55;;
21038;SDS011;10678;51.002;4.786;2022-07-06T04:38:25;8.68;;;7.95;;
21038;SDS011;10678;51.002;4.786;2022-07-06T04:40:50;9.32;;;7.55;;
21038;SDS011;10678;51.002;4.786;2022-07-06T04:43:16;5.38;;;4.80;;
21038;SDS011;10678;51.002;4.786;2022-07-06T04:45:42;5.80;;;4.65;;
21038;SDS011;10678;51.002;4.786;2022-07-06T04:48:08;4.82;;;4.18;;
21038;SDS011;10678;51.002;4.786;2022-07-06T04:50:33;12.98;;;4.20;;
21038;SDS011;10678;51.002;4.786;2022-07-06T04:52:59;6.68;;;4.22;;
21038;SDS011;10678;51.002;4.786;2022-07-06T04:55:25;7.20;;;5.10;;
21038;SDS011;10678;51.002;4.786;2022-07-06T04:57:50;6.95;;;6.00;;
21038;SDS011;10678;51.002;4.786;2022-07-06T05:00:16;7.57;;;6.90;;
21038;SDS011;10678;51.002;4.786;2022-07-06T05:02:42;8.35;;;7.65;;
21038;SDS011;10678;51.002;4.786;2022-07-06T05:05:08;7.80;;;7.10;;
21038;SDS011;10678;51.002;4.786;2022-07-06T05:07:34;8.18;;;7.47;;
21038;SDS011;10678;51.002;4.786;2022-07-06T05:10:04;9.23;;;6.32;;
21038;SDS011;10678;51.002;4.786;2022-07-06T05:12:31;6.85;;;6.25;;
21038;SDS011;10678;51.002;4.786;2022-07-06T05:14:57;7.57;;;6.88;;
21038;SDS011;10678;51.002;4.786;2022-07-06T05:17:22;8.45;;;7.75;;
21038;SDS011;10678;51.002;4.786;2022-07-06T05:19:48;10.50;;;8.77;;
21038;SDS011;10678;51.002;4.786;2022-07-06T05:22:14;8.68;;;7.97;;
21038;SDS011;10678;51.002;4.786;2022-07-06T05:24:39;10.70;;;7.88;;
21038;SDS011;10678;51.002;4.786;2022-07-06T05:27:05;9.02;;;8.25;;
21038;SDS011;10678;51.002;4.786;2022-07-06T05:29:30;9.02;;;8.15;;
21038;SDS011;10678;51.002;4.786;2022-07-06T05:31:56;9.27;;;8.55;;
21038;SDS011;10678;51.002;4.786;2022-07-06T05:34:21;9.40;;;8.63;;
21038;SDS011;10678;51.002;4.786;2022-07-06T05:36:47;10.02;;;9.23;;
21038;SDS011;10678;51.002;4.786;2022-07-06T05:39:13;10.50;;;9.52;;
21038;SDS011;10678;51.002;4.786;2022-07-06T05:41:38;10.23;;;9.32;;
21038;SDS011;10678;51.002;4.786;2022-07-06T05:44:04;10.32;;;9.50;;
21038;SDS011;10678;51.002;4.786;2022-07-06T05:46:29;9.63;;;8.73;;
21038;SDS011;10678;51.002;4.786;2022-07-06T05:48:55;7.07;;;6.38;;
21038;SDS011;10678;51.002;4.786;2022-07-06T05:51:39;8.63;;;7.90;;
21038;SDS011;10678;51.002;4.786;2022-07-06T05:54:04;8.48;;;7.80;;
21038;SDS011;10678;51.002;4.786;2022-07-06T05:56:30;10.05;;;8.98;;
21038;SDS011;10678;51.002;4.786;2022-07-06T05:58:56;8.85;;;8.15;;
21038;SDS011;10678;51.002;4.786;2022-07-06T06:01:21;10.80;;;9.88;;
21038;SDS011;10678;51.002;4.786;2022-07-06T06:03:47;12.82;;;11.75;;
21038;SDS011;10678;51.002;4.786;2022-07-06T06:06:12;11.40;;;10.50;;
21038;SDS011;10678;51.002;4.786;2022-07-06T06:08:38;9.52;;;8.82;;
21038;SDS011;10678;51.002;4.786;2022-07-06T06:11:04;12.88;;;11.88;;
21038;SDS011;10678;51.002;4.786;2022-07-06T06:13:29;16.17;;;15.13;;
21038;SDS011;10678;51.002;4.786;2022-07-06T06:15:55;10.57;;;9.77;;
21038;SDS011;10678;51.002;4.786;2022-07-06T06:18:20;7.57;;;6.95;;
21038;SDS011;10678;51.002;4.786;2022-07-06T06:20:46;13.13;;;7.65;;
21038;SDS011;10678;51.002;4.786;2022-07-06T06:23:12;5.43;;;4.93;;
21038;SDS011;10678;51.002;4.786;2022-07-06T06:25:39;12.18;;;10.80;;
21038;SDS011;10678;51.002;4.786;2022-07-06T06:28:08;16.55;;;15.18;;
21038;SDS011;10678;51.002;4.786;2022-07-06T06:30:35;13.57;;;12.68;;
21038;SDS011;10678;51.002;4.786;2022-07-06T06:33:05;15.88;;;14.73;;
21038;SDS011;10678;51.002;4.786;2022-07-06T06:35:42;14.27;;;9.30;;
21038;SDS011;10678;51.002;4.786;2022-07-06T06:38:09;11.90;;;11.02;;
21038;SDS011;10678;51.002;4.786;2022-07-06T06:40:34;9.05;;;8.35;;
21038;SDS011;10678;51.002;4.786;2022-07-06T06:43:00;7.03;;;6.32;;
21038;SDS011;10678;51.002;4.786;2022-07-06T06:45:26;4.03;;;2.97;;
21038;SDS011;10678;51.002;4.786;2022-07-06T06:47:51;4.88;;;3.13;;
21038;SDS011;10678;51.002;4.786;2022-07-06T06:50:17;6.75;;;2.60;;
21038;SDS011;10678;51.002;4.786;2022-07-06T06:52:43;4.30;;;2.40;;
21038;SDS011;10678;51.002;4.786;2022-07-06T06:55:08;5.30;;;1.85;;
21038;SDS011;10678;51.002;4.786;2022-07-06T06:57:34;6.47;;;2.15;;
21038;SDS011;10678;51.002;4.786;2022-07-06T07:00:00;4.38;;;2.08;;
21038;SDS011;10678;51.002;4.786;2022-07-06T07:02:26;3.92;;;1.95;;
21038;SDS011;10678;51.002;4.786;2022-07-06T07:04:52;4.90;;;1.58;;
21038;SDS011;10678;51.002;4.786;2022-07-06T07:07:17;2.78;;;1.67;;
21038;SDS011;10678;51.002;4.786;2022-07-06T07:09:43;4.30;;;1.70;;
21038;SDS011;10678;51.002;4.786;2022-07-06T07:12:08;7.18;;;1.42;;
21038;SDS011;10678;51.002;4.786;2022-07-06T07:14:35;3.28;;;1.60;;
21038;SDS011;10678;51.002;4.786;2022-07-06T07:17:01;5.95;;;1.83;;
21038;SDS011;10678;51.002;4.786;2022-07-06T07:19:27;5.28;;;2.05;;
21038;SDS011;10678;51.002;4.786;2022-07-06T07:21:52;2.65;;;1.33;;
21038;SDS011;10678;51.002;4.786;2022-07-06T07:24:18;5.22;;;1.15;;
21038;SDS011;10678;51.002;4.786;2022-07-06T07:26:43;4.43;;;1.30;;
21038;SDS011;10678;51.002;4.786;2022-07-06T07:29:09;1.98;;;0.90;;
21038;SDS011;10678;51.002;4.786;2022-07-06T07:31:35;1.98;;;0.90;;
21038;SDS011;10678;51.002;4.786;2022-07-06T07:34:00;1.48;;;0.95;;
21038;SDS011;10678;51.002;4.786;2022-07-06T07:36:26;2.67;;;0.70;;
21038;SDS011;10678;51.002;4.786;2022-07-06T07:38:51;2.63;;;1.27;;
21038;SDS011;10678;51.002;4.786;2022-07-06T07:41:17;1.83;;;1.00;;
21038;SDS011;10678;51.002;4.786;2022-07-06T07:43:43;2.45;;;1.08;;
21038;SDS011;10678;51.002;4.786;2022-07-06T07:46:09;3.90;;;1.05;;
21038;SDS011;10678;51.002;4.786;2022-07-06T07:48:35;3.38;;;1.02;;
21038;SDS011;10678;51.002;4.786;2022-07-06T07:51:00;6.32;;;1.27;;
21038;SDS011;10678;51.002;4.786;2022-07-06T07:53:26;0.90;;;0.65;;
21038;SDS011;10678;51.002;4.786;2022-07-06T07:55:52;2.08;;;0.93;;
21038;SDS011;10678;51.002;4.786;2022-07-06T07:58:17;2.65;;;0.90;;
21038;SDS011;10678;51.002;4.786;2022-07-06T08:00:43;1.48;;;1.13;;
21038;SDS011;10678;51.002;4.786;2022-07-06T08:03:09;1.95;;;1.05;;
21038;SDS011;10678;51.002;4.786;2022-07-06T08:05:35;1.63;;;0.95;;
21038;SDS011;10678;51.002;4.786;2022-07-06T08:08:00;1.65;;;0.90;;
21038;SDS011;10678;51.002;4.786;2022-07-06T08:10:26;2.25;;;1.23;;
21038;SDS011;10678;51.002;4.786;2022-07-06T08:12:52;1.83;;;1.40;;
21038;SDS011;10678;51.002;4.786;2022-07-06T08:15:18;1.83;;;1.10;;
21038;SDS011;10678;51.002;4.786;2022-07-06T08:17:43;3.72;;;2.25;;
21038;SDS011;10678;51.002;4.786;2022-07-06T08:20:10;5.57;;;1.48;;
21038;SDS011;10678;51.002;4.786;2022-07-06T08:22:36;2.28;;;1.15;;
21038;SDS011;10678;51.002;4.786;2022-07-06T08:25:02;2.03;;;1.17;;
21038;SDS011;10678;51.002;4.786;2022-07-06T08:27:28;2.15;;;1.35;;
21038;SDS011;10678;51.002;4.786;2022-07-06T08:29:54;1.75;;;1.60;;
21038;SDS011;10678;51.002;4.786;2022-07-06T08:32:20;2.08;;;1.52;;
21038;SDS011;10678;51.002;4.786;2022-07-06T08:34:46;2.30;;;1.65;;
21038;SDS011;10678;51.002;4.786;2022-07-06T08:37:12;4.03;;;2.10;;
21038;SDS011;10678;51.002;4.786;2022-07-06T08:39:37;3.38;;;1.88;;
21038;SDS011;10678;51.002;4.786;2022-07-06T08:42:03;5.72;;;1.80;;
21038;SDS011;10678;51.002;4.786;2022-07-06T08:44:30;4.28;;;2.33;;
21038;SDS011;10678;51.002;4.786;2022-07-06T08:46:57;3.00;;;2.22;;
21038;SDS011;10678;51.002;4.786;2022-07-06T08:49:26;3.17;;;2.20;;
21038;SDS011;10678;51.002;4.786;2022-07-06T08:51:52;2.50;;;2.00;;
21038;SDS011;10678;51.002;4.786;2022-07-06T08:54:18;2.60;;;2.25;;
21038;SDS011;10678;51.002;4.786;2022-07-06T08:56:46;4.35;;;3.20;;
21038;SDS011;10678;51.002;4.786;2022-07-06T08:59:12;6.07;;;3.33;;
21038;SDS011;10678;51.002;4.786;2022-07-06T09:01:38;3.25;;;2.95;;
21038;SDS011;10678;51.002;4.786;2022-07-06T09:04:05;4.22;;;3.88;;
21038;SDS011;10678;51.002;4.786;2022-07-06T09:06:32;4.68;;;4.28;;
21038;SDS011;10678;51.002;4.786;2022-07-06T09:09:00;3.83;;;3.53;;
21038;SDS011;10678;51.002;4.786;2022-07-06T09:11:30;4.15;;;2.75;;
21038;SDS011;10678;51.002;4.786;2022-07-06T09:13:55;6.85;;;3.17;;
21038;SDS011;10678;51.002;4.786;2022-07-06T09:16:26;6.05;;;2.50;;
21038;SDS011;10678;51.002;4.786;2022-07-06T09:18:53;5.35;;;2.75;;
21038;SDS011;10678;51.002;4.786;2022-07-06T09:21:22;3.05;;;1.98;;
21038;SDS011;10678;51.002;4.786;2022-07-06T09:23:58;2.67;;;1.90;;
21038;SDS011;10678;51.002;4.786;2022-07-06T09:26:27;2.55;;;1.42;;
21038;SDS011;10678;51.002;4.786;2022-07-06T09:28:55;3.50;;;1.90;;
21038;SDS011;10678;51.002;4.786;2022-07-06T09:31:21;2.35;;;1.45;;
21038;SDS011;10678;51.002;4.786;2022-07-06T09:33:57;2.10;;;1.80;;
21038;SDS011;10678;51.002;4.786;2022-07-06T09:41:48;2.67;;;1.27;;
21038;SDS011;10678;51.002;4.786;2022-07-06T09:44:20;1.90;;;1.02;;
21038;SDS011;10678;51.002;4.786;2022-07-06T09:46:47;5.30;;;0.77;;
21038;SDS011;10678;51.002;4.786;2022-07-06T09:49:16;2.65;;;0.90;;
21038;SDS011;10678;51.002;4.786;2022-07-06T09:51:44;1.80;;;0.95;;
21038;SDS011;10678;51.002;4.786;2022-07-06T09:54:11;2.92;;;0.82;;
21038;SDS011;10678;51.002;4.786;2022-07-06T09:56:40;2.35;;;0.95;;
21038;SDS011;10678;51.002;4.786;2022-07-06T09:59:13;1.65;;;0.73;;
21038;SDS011;10678;51.002;4.786;2022-07-06T10:01:40;1.90;;;0.80;;
21038;SDS011;10678;51.002;4.786;2022-07-06T10:04:08;1.60;;;0.75;;
21038;SDS011;10678;51.002;4.786;2022-07-06T10:06:34;1.55;;;0.80;;
21038;SDS011;10678;51.002;4.786;2022-07-06T10:09:01;1.08;;;0.88;;
21038;SDS011;10678;51.002;4.786;2022-07-06T10:11:30;4.35;;;1.10;;
21038;SDS011;10678;51.002;4.786;2022-07-06T10:14:06;1.55;;;1.02;;
21038;SDS011;10678;51.002;4.786;2022-07-06T10:16:37;3.95;;;1.02;;
21038;SDS011;10678;51.002;4.786;2022-07-06T10:19:07;5.32;;;1.85;;
21038;SDS011;10678;51.002;4.786;2022-07-06T10:21:35;3.17;;;1.75;;
21038;SDS011;10678;51.002;4.786;2022-07-06T10:24:02;4.45;;;1.48;;
21038;SDS011;10678;51.002;4.786;2022-07-06T10:26:29;3.38;;;2.50;;
21038;SDS011;10678;51.002;4.786;2022-07-06T10:28:57;3.08;;;1.70;;
21038;SDS011;10678;51.002;4.786;2022-07-06T10:31:24;3.38;;;1.48;;
21038;SDS011;10678;51.002;4.786;2022-07-06T10:33:51;2.60;;;1.20;;
21038;SDS011;10678;51.002;4.786;2022-07-06T10:36:18;2.22;;;1.80;;
21038;SDS011;10678;51.002;4.786;2022-07-06T10:38:46;4.07;;;2.20;;
21038;SDS011;10678;51.002;4.786;2022-07-06T10:41:15;2.45;;;1.63;;
21038;SDS011;10678;51.002;4.786;2022-07-06T10:43:44;2.65;;;2.03;;
21038;SDS011;10678;51.002;4.786;2022-07-06T10:46:14;4.97;;;2.33;;
21038;SDS011;10678;51.002;4.786;2022-07-06T10:48:43;3.75;;;2.00;;
21038;SDS011;10678;51.002;4.786;2022-07-06T10:51:22;3.60;;;3.15;;
21038;SDS011;10678;51.002;4.786;2022-07-06T10:53:49;3.13;;;2.72;;
21038;SDS011;10678;51.002;4.786;2022-07-06T10:56:21;3.28;;;2.92;;
21038;SDS011;10678;51.002;4.786;2022-07-06T10:59:01;3.33;;;3.05;;
21038;SDS011;10678;51.002;4.786;2022-07-06T11:01:28;3.45;;;3.15;;
21038;SDS011;10678;51.002;4.786;2022-07-06T11:06:23;2.47;;;2.28;;
21038;SDS011;10678;51.002;4.786;2022-07-06T11:09:00;4.30;;;3.88;;
21038;SDS011;10678;51.002;4.786;2022-07-06T11:19:15;2.42;;;1.98;;
21038;SDS011;10678;51.002;4.786;2022-07-06T11:21:46;6.45;;;2.80;;
21038;SDS011;10678;51.002;4.786;2022-07-06T11:24:14;7.43;;;2.83;;
21038;SDS011;10678;51.002;4.786;2022-07-06T11:26:42;3.53;;;2.65;;
21038;SDS011;10678;51.002;4.786;2022-07-06T11:29:10;2.42;;;2.22;;
21038;SDS011;10678;51.002;4.786;2022-07-06T11:31:37;3.83;;;3.53;;
21038;SDS011;10678;51.002;4.786;2022-07-06T11:34:05;9.82;;;6.13;;
21038;SDS011;10678;51.002;4.786;2022-07-06T11:36:31;11.98;;;10.98;;
21038;SDS011;10678;51.002;4.786;2022-07-06T11:38:57;16.73;;;15.73;;
21038;SDS011;10678;51.002;4.786;2022-07-06T11:41:23;10.02;;;9.27;;
21038;SDS011;10678;51.002;4.786;2022-07-06T11:43:49;11.57;;;10.65;;
21038;SDS011;10678;51.002;4.786;2022-07-06T11:48:56;14.82;;;13.80;;
21038;SDS011;10678;51.002;4.786;2022-07-06T11:51:23;12.05;;;11.23;;
21038;SDS011;10678;51.002;4.786;2022-07-06T11:53:51;11.27;;;10.43;;
21038;SDS011;10678;51.002;4.786;2022-07-06T11:56:18;10.20;;;9.30;;
21038;SDS011;10678;51.002;4.786;2022-07-06T11:58:48;5.90;;;5.45;;
21038;SDS011;10678;51.002;4.786;2022-07-06T12:01:15;6.70;;;6.28;;
21038;SDS011;10678;51.002;4.786;2022-07-06T12:03:41;13.02;;;11.55;;
21038;SDS011;10678;51.002;4.786;2022-07-06T12:06:15;11.27;;;10.45;;
21038;SDS011;10678;51.002;4.786;2022-07-06T12:08:42;6.95;;;6.25;;
21038;SDS011;10678;51.002;4.786;2022-07-06T12:11:09;18.83;;;6.60;;
21038;SDS011;10678;51.002;4.786;2022-07-06T12:13:38;6.45;;;5.72;;
21038;SDS011;10678;51.002;4.786;2022-07-06T12:16:14;4.22;;;3.72;;
21038;SDS011;10678;51.002;4.786;2022-07-06T12:18:41;4.18;;;3.78;;
21038;SDS011;10678;51.002;4.786;2022-07-06T12:21:13;4.57;;;3.50;;
21038;SDS011;10678;51.002;4.786;2022-07-06T12:23:47;3.88;;;3.47;;
21038;SDS011;10678;51.002;4.786;2022-07-06T12:26:16;3.45;;;3.05;;
21038;SDS011;10678;51.002;4.786;2022-07-06T12:28:46;2.58;;;2.20;;
21038;SDS011;10678;51.002;4.786;2022-07-06T12:31:36;4.95;;;3.13;;
21038;SDS011;10678;51.002;4.786;2022-07-06T12:34:04;2.70;;;2.40;;
21038;SDS011;10678;51.002;4.786;2022-07-06T12:36:47;3.08;;;2.17;;
21038;SDS011;10678;51.002;4.786;2022-07-06T12:39:14;2.67;;;2.35;;
21038;SDS011;10678;51.002;4.786;2022-07-06T12:41:45;5.35;;;3.47;;
21038;SDS011;10678;51.002;4.786;2022-07-06T12:44:12;2.95;;;2.75;;
21038;SDS011;10678;51.002;4.786;2022-07-06T12:46:41;7.93;;;7.28;;
21038;SDS011;10678;51.002;4.786;2022-07-06T12:49:11;10.82;;;10.05;;
21038;SDS011;10678;51.002;4.786;2022-07-06T12:54:31;8.57;;;8.02;;
21038;SDS011;10678;51.002;4.786;2022-07-06T12:57:09;9.55;;;8.02;;
21038;SDS011;10678;51.002;4.786;2022-07-06T12:59:38;6.28;;;5.65;;
21038;SDS011;10678;51.002;4.786;2022-07-06T13:02:16;6.80;;;6.38;;
21038;SDS011;10678;51.002;4.786;2022-07-06T13:04:56;6.55;;;6.10;;
21038;SDS011;10678;51.002;4.786;2022-07-06T13:07:23;6.68;;;6.03;;
21038;SDS011;10678;51.002;4.786;2022-07-06T13:09:49;4.13;;;3.83;;
21038;SDS011;10678;51.002;4.786;2022-07-06T13:12:15;3.35;;;3.05;;
21038;SDS011;10678;51.002;4.786;2022-07-06T13:14:40;3.15;;;2.85;;
21038;SDS011;10678;51.002;4.786;2022-07-06T13:17:06;3.03;;;2.45;;
21038;SDS011;10678;51.002;4.786;2022-07-06T13:19:32;4.47;;;2.13;;
21038;SDS011;10678;51.002;4.786;2022-07-06T13:21:57;3.40;;;3.00;;
21038;SDS011;10678;51.002;4.786;2022-07-06T13:24:23;3.90;;;2.80;;
21038;SDS011;10678;51.002;4.786;2022-07-06T13:26:49;4.55;;;1.60;;
21038;SDS011;10678;51.002;4.786;2022-07-06T13:29:15;5.05;;;4.55;;
21038;SDS011;10678;51.002;4.786;2022-07-06T13:31:41;8.63;;;8.02;;
21038;SDS011;10678;51.002;4.786;2022-07-06T13:34:07;12.18;;;10.98;;
21038;SDS011;10678;51.002;4.786;2022-07-06T13:36:33;6.45;;;5.95;;
21038;SDS011;10678;51.002;4.786;2022-07-06T13:38:59;5.68;;;5.28;;
21038;SDS011;10678;51.002;4.786;2022-07-06T13:41:25;6.13;;;5.72;;
21038;SDS011;10678;51.002;4.786;2022-07-06T13:43:51;8.27;;;7.72;;
21038;SDS011;10678;51.002;4.786;2022-07-06T13:46:16;8.73;;;7.40;;
21038;SDS011;10678;51.002;4.786;2022-07-06T13:48:43;7.43;;;6.93;;
21038;SDS011;10678;51.002;4.786;2022-07-06T13:51:09;4.72;;;4.38;;
21038;SDS011;10678;51.002;4.786;2022-07-06T13:53:35;3.25;;;3.03;;
21038;SDS011;10678;51.002;4.786;2022-07-06T13:56:01;5.38;;;3.70;;
21038;SDS011;10678;51.002;4.786;2022-07-06T13:58:27;4.57;;;4.18;;
21038;SDS011;10678;51.002;4.786;2022-07-06T14:00:53;4.97;;;3.05;;
21038;SDS011;10678;51.002;4.786;2022-07-06T14:03:19;5.20;;;4.78;;
21038;SDS011;10678;51.002;4.786;2022-07-06T14:05:46;10.10;;;3.72;;
21038;SDS011;10678;51.002;4.786;2022-07-06T14:08:12;4.22;;;3.88;;
21038;SDS011;10678;51.002;4.786;2022-07-06T14:10:38;10.02;;;5.00;;
21038;SDS011;10678;51.002;4.786;2022-07-06T14:13:03;7.20;;;4.47;;
21038;SDS011;10678;51.002;4.786;2022-07-06T14:15:29;4.22;;;3.50;;
21038;SDS011;10678;51.002;4.786;2022-07-06T14:17:55;8.75;;;4.43;;
21038;SDS011;10678;51.002;4.786;2022-07-06T14:20:20;5.72;;;5.13;;
21038;SDS011;10678;51.002;4.786;2022-07-06T14:22:46;4.07;;;3.67;;
21038;SDS011;10678;51.002;4.786;2022-07-06T14:25:11;4.50;;;3.85;;
21038;SDS011;10678;51.002;4.786;2022-07-06T14:27:37;3.42;;;2.42;;
21038;SDS011;10678;51.002;4.786;2022-07-06T14:30:03;11.93;;;2.67;;
21038;SDS011;10678;51.002;4.786;2022-07-06T14:32:29;3.90;;;2.17;;
21038;SDS011;10678;51.002;4.786;2022-07-06T14:34:55;2.95;;;2.03;;
21038;SDS011;10678;51.002;4.786;2022-07-06T14:37:20;5.80;;;2.38;;
21038;SDS011;10678;51.002;4.786;2022-07-06T14:39:46;2.60;;;1.30;;
21038;SDS011;10678;51.002;4.786;2022-07-06T14:42:13;3.03;;;1.80;;
21038;SDS011;10678;51.002;4.786;2022-07-06T14:44:39;3.88;;;1.27;;
21038;SDS011;10678;51.002;4.786;2022-07-06T14:47:05;4.90;;;1.40;;
21038;SDS011;10678;51.002;4.786;2022-07-06T14:49:31;2.47;;;2.05;;
21038;SDS011;10678;51.002;4.786;2022-07-06T14:51:57;8.55;;;1.75;;
21038;SDS011;10678;51.002;4.786;2022-07-06T14:54:23;4.78;;;1.35;;
21038;SDS011;10678;51.002;4.786;2022-07-06T14:56:49;3.38;;;1.27;;